Aviation Digital Data Service (ADDS)

Output produced by METARs form (2147 UTC 24 March 2019)
found at http://www.aviationweather.gov/metar/data/
 
VGEG 241700Z 30003KT 3500 HZ NSC 26/23 Q1010 NOSIG
TAF VGEG 241700Z 2418/2524 00000KT 3500 HZ NSC 
     BECMG 2422/2424 06003KT 2000 BR SCT015 
     BECMG 2503/2505 24008KT 4000 HZ NSC 
     BECMG 2516/2518 00000KT 3500 HZ NSC